Castanheira, Brazil
Current Conditions -  °F | °C
As of 6:00 PM on Wednesday 28 Jan 2015 (Local Time) from SBAT Reporting Station
Broken Clouds Broken Clouds  
Wind Chill: 77°   Ceiling: 9000
Heat Index: 78°   Visibility: 6mi
Dew Point: 72°   Wind: 0mph
Humidity: 83%   Direction: NA
Pressure: 29.85"   Gusts: NA
Location:  11.13°S, 58.6°W
Report Text: SBAT 282100Z 00000KT 9999 FEW030 SCT040 BKN090 25/22 Q1011
Loading
Personal Weather Stations






























Interactive Weather Map New forecast layout! Learn more

10-Day Weather Forecast

Advertisements
Track Severe Weather on mobile